KTWF/TWF METAR and TAF weather

Enter ICAO airport designator
Station Type Date Time Source
KTWF METAR 2020/03/28 07:53 UTC NOAA

KTWF 280753Z AUTO 23014KT 10SM BKN110 01/M06 A2999 RMK AO2 SLP153 T00061056


Station Type Date Time Source
KTWF Decoded METAR 2020/03/28 07:53 UTC NOAA

JOSLIN FLD-MAGIC VALLEY REGL, ID, United States (KTWF) 42-29N 114-29W 1266M
Mar 28, 2020 - 03:53 AM EDT / 2020.03.28 0753 UTC
Wind: from the SW (230 degrees) at 16 MPH (14 KT):0
Visibility: 10 mile(s):0
Sky conditions: mostly cloudy
Temperature: 33.1 F (0.6 C)
Windchill: 23 F (-5 C):1
Dew Point: 21.9 F (-5.6 C)
Relative Humidity: 63%
Pressure (altimeter): 29.99 in. Hg (1015 hPa)
ob: KTWF 280753Z AUTO 23014KT 10SM BKN110 01/M06 A2999 RMK AO2 SLP153 T00061056
cycle: 8

Station Type Date Time Source
KTWF TAF 2020/03/28 06:22 UTC NOAA

TAF KTWF 280520Z 2806/2906 22011KT P6SM BKN100
FM281600 26013KT P6SM SCT050 BKN100
FM282300 26006KT P6SM BKN200

Example: see airport list